KWRB/WRB METAR and TAF weather

Enter ICAO airport designator
Station Type Date Time Source
KWRB METAR 2021/01/26 19:56 UTC NOAA

KWRB 261956Z 20006KT 10SM BKN080 22/19 A2988 RMK AO2A SLP119 T02190192


Station Type Date Time Source
KWRB Decoded METAR 2021/01/26 19:56 UTC NOAA

Warner Robins Air Force Base, GA, United States (KWRB) 32-38N 083-36W
Jan 26, 2021 - 02:56 PM EST / 2021.01.26 1956 UTC
Wind: from the SSW (200 degrees) at 7 MPH (6 KT):0
Visibility: 10 mile(s):0
Sky conditions: mostly cloudy
Temperature: 71.4 F (21.9 C)
Dew Point: 66.6 F (19.2 C)
Relative Humidity: 84%
Pressure (altimeter): 29.88 in. Hg (1011 hPa)
ob: KWRB 261956Z 20006KT 10SM BKN080 22/19 A2988 RMK AO2A SLP119 T02190192
cycle: 20

Station Type Date Time Source
KWRB TAF 2021/01/26 18:03 UTC NOAA

TAF
AMD KWRB 251801Z 2518/2623 19010G15KT 9999 BKN015 QNH2996INS
BECMG 2517/2518 21015G20KT 9999 SCT020 QNH2994INS
BECMG 2522/2523 VRB06KT 9999 BKN020 QNH2991INS
BECMG 2601/2602 18009KT 9000 BR BKN022 510203 QNH2989INS
BECMG 2616/2617 22009KT 8000 -SHRA OVC005 QNH2989INS
BECMG 2617/2618 23012KT 8000 -TSRA BKN015CB QNH2988INS
BECMG 2622/2623 25020G25KT 8000 -TSRA BKN005CB OVC015 QNH2990INS TX21/2521Z TN17/2603Z

Example: see airport list